Time;durP1;ratioP1;P1;durP2;ratioP2;P2;SDS_P1;SDS_P2;PMS_P1;PMS_P2;Temp;Humidity;BMP_temperature;BMP_pressure;BME280_temperature;BME280_humidity;BME280_pressure;Samples;Min_cycle;Max_cycle;Signal;HPM_P1;HPM_P2
2022/11/11 00:01:50;;;;;;;8.50;4.57;;;8.20;87.10;;;;;;5063100;28;20055;-62
2022/11/11 00:04:41;;;;;;;8.75;4.85;;;8.20;87.10;;;;;;5064306;28;20547;-63
2022/11/11 00:07:27;;;;;;;7.35;4.10;;;8.20;87.10;;;;;;5064719;28;20090;-70
2022/11/11 00:10:13;;;;;;;7.15;3.92;;;8.30;87.10;;;;;;5068060;28;20058;-68
2022/11/11 00:13:08;;;;;;;7.13;3.75;;;8.20;87.20;;;;;;5066978;28;20498;-69
2022/11/11 00:16:04;;;;;;;8.10;3.90;;;8.20;87.10;;;;;;5065351;28;20059;-60
2022/11/11 00:25:07;;;;;;;6.07;3.58;;;8.30;87.00;;;;;;5064013;28;20193;-60
2022/11/11 00:27:56;;;;;;;6.40;3.72;;;8.20;87.10;;;;;;5065910;28;20170;-62
2022/11/11 00:30:41;;;;;;;8.20;3.47;;;8.30;87.00;;;;;;5064420;28;20068;-60
2022/11/11 00:33:27;;;;;;;7.65;3.58;;;8.30;86.90;;;;;;5072467;28;20109;-61
2022/11/11 00:36:11;;;;;;;7.32;3.47;;;8.30;86.90;;;;;;5067027;28;20055;-63
2022/11/11 00:38:57;;;;;;;7.43;3.60;;;8.20;86.90;;;;;;5064273;28;20078;-62
2022/11/11 00:41:42;;;;;;;7.55;4.22;;;8.30;86.80;;;;;;5061426;28;20075;-70
2022/11/11 00:44:35;;;;;;;7.82;4.07;;;8.20;86.80;;;;;;5062130;28;20090;-70
2022/11/11 00:53:34;;;;;;;6.88;3.55;;;8.20;86.70;;;;;;5062152;28;20052;-70
2022/11/11 00:56:19;;;;;;;7.10;3.72;;;8.20;86.70;;;;;;5060656;28;20406;-59
2022/11/11 00:59:06;;;;;;;5.57;3.20;;;8.20;86.70;;;;;;5066361;28;20044;-59
2022/11/11 01:01:53;;;;;;;4.82;3.00;;;8.20;86.50;;;;;;5054316;28;20047;-63
2022/11/11 01:04:39;;;;;;;5.22;2.92;;;8.20;86.30;;;;;;5064266;28;20121;-63
2022/11/11 01:07:24;;;;;;;5.88;3.50;;;8.10;86.50;;;;;;5066155;28;20056;-64
2022/11/11 01:10:10;;;;;;;6.85;3.70;;;8.10;86.70;;;;;;5063454;28;20178;-64
2022/11/11 01:13:10;;;;;;;5.90;3.08;;;8.10;86.70;;;;;;5065657;28;20253;-63
2022/11/11 01:16:00;;;;;;;7.90;3.75;;;8.20;86.50;;;;;;5059414;28;20529;-72
2022/11/11 01:18:48;;;;;;;;;;;8.10;86.40;;;;;;5059187;28;20169;-69
2022/11/11 01:21:33;;;;;;;6.18;2.97;;;8.10;86.40;;;;;;5062064;28;19927;-63
2022/11/11 01:24:22;;;;;;;5.57;3.28;;;8.10;86.40;;;;;;5060800;28;20059;-63
2022/11/11 01:27:07;;;;;;;5.85;3.00;;;8.10;86.30;;;;;;5064908;27;20406;-61
2022/11/11 01:29:52;;;;;;;5.47;3.00;;;7.90;86.30;;;;;;5064162;28;20055;-60
2022/11/11 01:32:39;;;;;;;6.40;3.75;;;7.90;86.50;;;;;;5066069;28;20083;-61
2022/11/11 01:35:26;;;;;;;5.90;3.38;;;7.90;86.50;;;;;;5061217;28;20417;-62
2022/11/11 01:38:11;;;;;;;6.68;3.38;;;7.90;86.70;;;;;;5060208;28;20044;-61
2022/11/11 01:40:57;;;;;;;5.95;3.22;;;8.00;86.40;;;;;;5064636;28;20056;-62
2022/11/11 01:43:42;;;;;;;6.72;3.00;;;8.00;86.30;;;;;;5064425;28;20058;-63
2022/11/11 01:46:31;;;;;;;5.82;3.17;;;7.90;86.20;;;;;;5064716;28;20113;-61
2022/11/11 01:49:28;;;;;;;5.18;3.20;;;7.90;86.30;;;;;;5064757;28;20175;-62
2022/11/11 01:52:22;;;;;;;7.13;2.90;;;7.90;86.40;;;;;;5064986;28;20077;-70
2022/11/11 01:55:15;;;;;;;5.15;2.47;;;7.90;86.40;;;;;;5064428;28;20505;-70
2022/11/11 01:58:03;;;;;;;5.68;2.72;;;7.90;86.30;;;;;;5065689;28;20063;-68
2022/11/11 02:00:48;;;;;;;5.60;2.78;;;7.90;86.20;;;;;;5062336;28;20047;-69
2022/11/11 02:03:39;;;;;;;4.85;2.75;;;7.70;86.20;;;;;;5063308;28;21061;-69
2022/11/11 02:06:23;;;;;;;4.82;2.58;;;7.70;86.40;;;;;;5064368;28;20052;-61
2022/11/11 02:09:13;;;;;;;5.82;2.60;;;7.70;86.30;;;;;;5065699;28;20047;-60
2022/11/11 02:15:08;;;;;;;5.32;2.65;;;7.70;85.90;;;;;;5064974;28;20509;-61
2022/11/11 02:17:54;;;;;;;5.40;2.45;;;7.70;86.00;;;;;;5063865;28;20130;-63
2022/11/11 02:20:44;;;;;;;5.00;1.83;;;7.70;85.90;;;;;;5062437;28;20171;-63
2022/11/11 02:23:36;;;;;;;4.23;2.47;;;7.70;86.10;;;;;;5063343;28;20055;-62
2022/11/11 02:26:24;;;;;;;5.97;2.50;;;7.70;86.10;;;;;;5061778;28;20125;-60
2022/11/11 02:29:13;;;;;;;4.18;2.30;;;7.60;86.20;;;;;;5061898;28;20178;-61
2022/11/11 02:31:59;;;;;;;4.38;2.22;;;7.70;86.20;;;;;;5063242;28;20170;-72
2022/11/11 02:34:45;;;;;;;5.68;2.53;;;7.70;86.00;;;;;;5048028;28;20039;-72
2022/11/11 02:37:31;;;;;;;5.50;2.65;;;7.70;86.00;;;;;;5064927;28;20051;-71
2022/11/11 02:40:20;;;;;;;5.07;2.65;;;7.70;86.20;;;;;;5069040;28;20551;-71
2022/11/11 02:43:07;;;;;;;4.93;2.72;;;7.70;86.20;;;;;;5069251;28;20133;-62
2022/11/11 02:45:52;;;;;;;5.78;2.72;;;7.70;86.20;;;;;;5068090;28;20059;-70
2022/11/11 02:48:38;;;;;;;5.38;2.78;;;7.60;86.10;;;;;;5066756;28;20055;-69
2022/11/11 02:51:23;;;;;;;5.47;2.55;;;7.60;86.20;;;;;;5065166;28;20551;-62
2022/11/11 02:54:11;;;;;;;6.07;2.78;;;7.60;86.20;;;;;;5069153;28;20102;-62
2022/11/11 02:57:09;;;;;;;6.07;3.00;;;7.60;86.20;;;;;;5069164;28;20052;-63
2022/11/11 02:59:58;;;;;;;5.60;2.80;;;7.60;86.20;;;;;;5068419;28;20139;-63
2022/11/11 03:02:43;;;;;;;5.13;2.67;;;7.50;86.40;;;;;;5066774;28;20064;-60
2022/11/11 03:05:29;;;;;;;5.32;2.65;;;7.50;86.50;;;;;;5068988;28;20075;-61
2022/11/11 03:08:14;;;;;;;6.28;2.60;;;7.60;86.40;;;;;;5065866;28;20063;-62
2022/11/11 03:11:00;;;;;;;6.03;2.88;;;7.60;86.40;;;;;;5065854;28;20190;-62
2022/11/11 03:13:46;;;;;;;5.68;3.25;;;7.60;86.30;;;;;;5066126;28;20055;-62
2022/11/11 03:19:36;;;;;;;6.55;3.45;;;7.60;86.30;;;;;;5062496;28;20121;-61
2022/11/11 03:22:21;;;;;;;4.78;2.80;;;7.60;86.40;;;;;;5077168;28;20047;-61
2022/11/11 03:28:12;;;;;;;6.57;3.13;;;7.60;86.40;;;;;;5068509;28;20051;-60
2022/11/11 03:30:58;;;;;;;5.18;2.63;;;7.50;86.40;;;;;;5055176;28;20697;-62
2022/11/11 03:33:45;;;;;;;5.90;2.80;;;7.60;86.30;;;;;;5067798;28;20186;-59
2022/11/11 03:39:31;;;;;;;5.07;2.58;;;7.60;86.20;;;;;;5067363;28;20547;-61
2022/11/11 03:42:16;;;;;;;6.07;2.90;;;7.50;86.20;;;;;;5067091;28;20090;-63
2022/11/11 03:45:01;;;;;;;5.47;2.70;;;7.50;86.30;;;;;;5067487;28;20051;-62
2022/11/11 03:47:47;;;;;;;6.35;3.05;;;7.60;86.10;;;;;;5068750;28;20406;-61
2022/11/11 03:50:34;;;;;;;5.88;3.30;;;7.60;86.00;;;;;;5068102;28;20133;-63
2022/11/11 03:53:20;;;;;;;5.78;3.10;;;7.50;86.30;;;;;;5065328;28;20121;-62
2022/11/11 03:56:07;;;;;;;5.88;2.70;;;7.50;86.30;;;;;;5068054;28;20059;-64
2022/11/11 03:58:52;;;;;;;6.40;2.75;;;7.50;86.40;;;;;;5059535;28;20063;-63
2022/11/11 04:10:49;;;;;;;5.60;2.58;;;7.30;86.50;;;;;;5065498;28;20047;-72
2022/11/11 04:16:39;;;;;;;5.55;2.72;;;7.40;86.30;;;;;;5065135;28;20048;-61
2022/11/11 04:22:28;;;;;;;5.90;2.83;;;7.30;86.30;;;;;;5061283;28;20060;-63
2022/11/11 04:31:21;;;;;;;3.83;2.00;;;7.40;86.00;;;;;;5064290;27;20450;-62
2022/11/11 04:34:07;;;;;;;4.82;2.28;;;7.30;86.10;;;;;;5063529;28;20167;-61
2022/11/11 04:36:52;;;;;;;4.47;2.00;;;7.30;86.10;;;;;;5063944;28;20043;-63
2022/11/11 04:42:42;;;;;;;3.97;1.98;;;7.30;85.80;;;;;;5064412;28;20097;-63
2022/11/11 04:45:27;;;;;;;3.42;1.70;;;7.30;85.70;;;;;;5064691;28;20059;-60
2022/11/11 04:48:12;;;;;;;4.20;2.08;;;7.30;85.80;;;;;;5055223;28;20075;-62
2022/11/11 04:50:58;;;;;;;3.60;1.92;;;7.20;85.90;;;;;;5066845;28;20079;-62
2022/11/11 04:53:43;;;;;;;3.97;2.03;;;7.20;85.80;;;;;;5066032;28;20506;-62
2022/11/11 04:59:33;;;;;;;4.65;2.30;;;7.20;86.00;;;;;;5065842;28;20136;-63
2022/11/11 05:05:22;;;;;;;3.00;1.70;;;7.10;86.00;;;;;;5064428;28;20064;-64
2022/11/11 05:11:11;;;;;;;3.85;1.77;;;7.20;85.80;;;;;;5063516;28;20047;-60
2022/11/11 05:23:11;;;;;;;4.97;2.25;;;7.10;86.00;;;;;;5064932;28;20513;-61
2022/11/11 05:25:55;;;;;;;4.20;2.33;;;7.10;86.10;;;;;;5063808;28;20202;-61
2022/11/11 05:28:41;;;;;;;4.80;2.40;;;7.10;86.10;;;;;;5060926;28;20048;-62
2022/11/11 05:31:27;;;;;;;4.72;2.33;;;7.20;86.10;;;;;;5064049;28;20060;-60
2022/11/11 05:34:14;;;;;;;4.10;2.38;;;7.20;85.90;;;;;;5063457;28;20051;-61
2022/11/11 05:36:59;;;;;;;6.05;2.30;;;7.10;86.10;;;;;;5064272;28;20052;-58
2022/11/11 05:39:45;;;;;;;5.13;2.55;;;7.00;86.30;;;;;;5062720;28;20130;-60
2022/11/11 05:42:31;;;;;;;4.03;2.22;;;7.00;86.30;;;;;;5063414;28;20056;-69
2022/11/11 05:45:19;;;;;;;5.10;2.42;;;7.00;86.30;;;;;;5064811;28;20063;-69
2022/11/11 05:48:05;;;;;;;5.28;2.80;;;7.00;86.30;;;;;;5071088;28;20165;-68
2022/11/11 05:50:53;;;;;;;4.07;2.22;;;7.00;86.10;;;;;;5065097;28;20051;-70
2022/11/11 05:53:39;;;;;;;4.85;2.47;;;7.00;86.20;;;;;;5061273;28;20060;-72
2022/11/11 05:56:24;;;;;;;4.80;2.53;;;7.00;86.10;;;;;;5062838;28;20051;-62
2022/11/11 05:59:11;;;;;;;5.35;2.72;;;7.00;86.00;;;;;;5064781;28;20453;-62
2022/11/11 06:01:56;;;;;;;4.97;2.70;;;7.00;86.10;;;;;;5063022;28;20070;-68
2022/11/11 06:04:42;;;;;;;5.35;2.33;;;6.90;86.20;;;;;;5065591;28;20055;-69
2022/11/11 06:07:28;;;;;;;6.30;2.97;;;7.00;86.20;;;;;;5066401;28;20047;-61
2022/11/11 06:10:32;;;;;;;6.03;2.75;;;7.00;86.10;;;;;;5063337;28;20113;-62
2022/11/11 06:13:18;;;;;;;5.40;2.50;;;7.10;85.90;;;;;;5065686;28;20174;-61
2022/11/11 06:16:04;;;;;;;4.43;2.25;;;7.20;85.80;;;;;;5065610;28;20048;-61
2022/11/11 06:18:50;;;;;;;4.28;2.30;;;7.20;85.50;;;;;;5067018;28;20067;-62
2022/11/11 06:21:55;;;;;;;4.07;1.73;;;7.10;85.40;;;;;;5069689;28;20063;-70
2022/11/11 06:26:11;;;;;;;5.65;2.40;;;7.00;85.40;;;;;;5065591;28;20125;-68
2022/11/11 06:27:47;;;;;;;4.38;2.42;;;6.90;85.40;;;;;;5068958;28;20043;-61
2022/11/11 06:30:33;;;;;;;4.57;2.38;;;6.90;85.70;;;;;;5065052;28;20584;-61
2022/11/11 06:33:20;;;;;;;4.20;1.95;;;7.00;85.70;;;;;;5066555;28;20100;-61
2022/11/11 06:36:07;;;;;;;4.28;2.13;;;7.10;85.50;;;;;;5069972;28;20529;-61
2022/11/11 06:38:53;;;;;;;4.80;1.92;;;7.00;85.30;;;;;;5068439;28;20055;-61
2022/11/11 06:41:39;;;;;;;5.18;2.30;;;6.90;85.40;;;;;;5068767;28;20051;-60
2022/11/11 06:44:25;;;;;;;3.40;1.92;;;6.90;85.70;;;;;;5068691;28;20058;-60
2022/11/11 06:47:10;;;;;;;3.47;1.92;;;6.80;85.70;;;;;;5067812;28;20631;-60
2022/11/11 06:49:55;;;;;;;4.57;2.53;;;6.80;85.80;;;;;;5067447;28;20051;-60
2022/11/11 06:52:41;;;;;;;3.30;1.55;;;6.80;85.80;;;;;;5067868;28;20043;-62
2022/11/11 06:55:26;;;;;;;4.75;2.20;;;6.80;85.80;;;;;;5068097;28;20178;-61
2022/11/11 06:58:16;;;;;;;4.80;2.28;;;6.90;85.70;;;;;;5065005;28;20552;-62
2022/11/11 07:01:04;;;;;;;4.43;2.30;;;7.00;85.50;;;;;;5067189;28;20090;-61
2022/11/11 07:03:50;;;;;;;5.53;2.30;;;7.00;85.70;;;;;;5063992;28;20505;-62
2022/11/11 07:06:35;;;;;;;4.85;2.42;;;6.90;85.80;;;;;;5066659;28;20055;-70
2022/11/11 07:09:22;;;;;;;4.43;2.10;;;6.80;85.90;;;;;;5065171;28;20183;-69
2022/11/11 07:12:07;;;;;;;3.58;2.20;;;6.90;86.00;;;;;;5066452;28;20604;-61
2022/11/11 07:14:54;;;;;;;4.55;2.30;;;6.90;86.00;;;;;;5067073;28;20544;-61
2022/11/11 07:17:39;;;;;;;3.65;2.00;;;7.00;85.90;;;;;;5066277;28;20047;-60
2022/11/11 07:20:25;;;;;;;6.57;2.35;;;7.10;85.60;;;;;;5066337;28;20055;-62
2022/11/11 07:23:10;;;;;;;5.35;2.58;;;7.10;85.50;;;;;;5065265;28;20047;-62
2022/11/11 07:25:56;;;;;;;5.63;2.75;;;7.10;85.70;;;;;;5066211;28;20082;-64
2022/11/11 07:28:41;;;;;;;6.03;2.95;;;7.10;85.50;;;;;;5065537;28;20507;-63
2022/11/11 07:31:28;;;;;;;6.22;2.80;;;7.10;85.50;;;;;;5066850;28;20098;-62
2022/11/11 07:34:14;;;;;;;5.43;2.70;;;7.10;85.60;;;;;;5069680;28;20117;-63
2022/11/11 07:37:00;;;;;;;6.00;3.20;;;7.20;85.50;;;;;;5065773;28;20406;-68
2022/11/11 07:39:46;;;;;;;7.90;3.60;;;7.20;85.40;;;;;;5066956;28;20052;-68
2022/11/11 07:42:32;;;;;;;6.07;3.00;;;7.30;85.20;;;;;;5065264;28;20071;-69
2022/11/11 07:45:18;;;;;;;7.72;3.38;;;7.40;85.10;;;;;;5065388;28;20402;-70
2022/11/11 07:48:05;;;;;;;6.25;2.85;;;7.30;85.20;;;;;;5068142;28;20047;-69
2022/11/11 07:50:52;;;;;;;5.20;2.85;;;7.20;85.30;;;;;;5054566;28;20083;-69
2022/11/11 07:53:38;;;;;;;7.60;2.80;;;7.20;85.30;;;;;;5067533;28;20171;-69
2022/11/11 07:56:26;;;;;;;5.47;2.63;;;7.20;85.30;;;;;;5065107;28;20055;-60
2022/11/11 07:59:11;;;;;;;6.07;2.83;;;7.20;85.30;;;;;;5061551;28;20051;-62
2022/11/11 08:01:56;;;;;;;6.65;2.97;;;7.30;85.30;;;;;;5065880;28;20186;-60
2022/11/11 08:04:44;;;;;;;6.35;2.95;;;7.30;85.20;;;;;;5066008;28;20137;-62
2022/11/11 08:07:30;;;;;;;6.55;2.80;;;7.30;85.40;;;;;;5062684;28;20052;-59
2022/11/11 08:10:15;;;;;;;6.35;2.72;;;7.30;85.40;;;;;;5063323;28;20179;-59
2022/11/11 08:16:05;;;;;;;5.57;2.65;;;7.40;85.60;;;;;;5066180;28;20121;-62
2022/11/11 08:18:52;;;;;;;6.07;3.03;;;7.50;85.40;;;;;;5061655;28;20121;-61
2022/11/11 08:21:39;;;;;;;4.90;2.80;;;7.50;85.40;;;;;;5061534;28;20205;-71
2022/11/11 08:24:24;;;;;;;6.05;2.55;;;7.50;85.50;;;;;;5068521;28;20055;-71
2022/11/11 08:27:10;;;;;;;4.60;2.22;;;7.50;85.50;;;;;;5062071;28;20575;-60
2022/11/11 08:29:55;;;;;;;5.05;2.45;;;7.50;85.50;;;;;;5064499;28;20125;-60
2022/11/11 08:32:41;;;;;;;5.07;2.63;;;7.60;85.60;;;;;;5067452;28;20077;-61
2022/11/11 08:35:28;;;;;;;4.57;2.50;;;7.60;85.60;;;;;;5063911;28;20055;-62
2022/11/11 08:38:14;;;;;;;4.78;2.38;;;7.70;85.60;;;;;;5064051;28;20064;-62
2022/11/11 08:41:00;;;;;;;5.90;2.70;;;7.70;85.60;;;;;;5062900;28;20202;-69
2022/11/11 08:43:46;;;;;;;6.78;2.88;;;7.70;85.60;;;;;;5062485;28;20098;-69
2022/11/11 08:46:31;;;;;;;5.00;2.38;;;7.70;85.80;;;;;;5063458;28;20056;-68
2022/11/11 08:49:16;;;;;;;6.25;2.70;;;7.70;85.70;;;;;;5065438;28;20050;-70
2022/11/11 08:52:02;;;;;;;6.72;3.10;;;7.70;85.70;;;;;;5063831;28;20056;-62
2022/11/11 08:54:49;;;;;;;5.55;2.40;;;7.70;85.90;;;;;;5061339;28;20048;-60
2022/11/11 08:57:35;;;;;;;5.90;2.88;;;7.70;85.90;;;;;;5065020;28;20052;-61
2022/11/11 09:00:20;;;;;;;5.57;2.70;;;7.70;85.80;;;;;;5062875;28;20174;-62
2022/11/11 09:03:08;;;;;;;4.22;2.50;;;7.80;85.80;;;;;;5064262;28;20052;-61
2022/11/11 09:05:53;;;;;;;4.78;2.67;;;7.90;85.90;;;;;;5065393;28;20518;-62
2022/11/11 09:08:42;;;;;;;4.93;2.45;;;7.90;86.00;;;;;;5066842;28;20055;-61
2022/11/11 09:11:35;;;;;;;4.68;2.13;;;8.00;85.80;;;;;;5064407;28;20051;-61
2022/11/11 09:14:20;;;;;;;3.63;1.80;;;8.10;85.80;;;;;;5065359;28;20157;-63
2022/11/11 09:17:07;;;;;;;3.40;1.73;;;8.10;85.70;;;;;;5060930;28;20056;-62
2022/11/11 09:19:52;;;;;;;3.65;1.67;;;8.20;85.80;;;;;;5060277;28;20079;-62
2022/11/11 09:22:42;;;;;;;4.97;1.88;;;8.30;85.80;;;;;;5065612;28;20055;-61
2022/11/11 09:25:28;;;;;;;3.80;1.83;;;8.30;85.80;;;;;;5064457;28;20090;-63
2022/11/11 09:28:14;;;;;;;4.57;2.22;;;8.40;85.70;;;;;;5065845;28;20844;-62
2022/11/11 09:31:01;;;;;;;4.50;1.95;;;8.40;85.80;;;;;;5064851;28;20063;-63
2022/11/11 09:33:49;;;;;;;4.78;2.33;;;8.40;85.80;;;;;;5062643;28;20074;-62
2022/11/11 09:36:34;;;;;;;4.70;2.03;;;8.50;85.90;;;;;;5062304;28;20497;-62
2022/11/11 09:39:20;;;;;;;6.05;2.20;;;8.50;85.90;;;;;;5064613;28;20121;-62
2022/11/11 09:42:12;;;;;;;4.00;1.80;;;8.50;85.80;;;;;;5061481;28;20047;-61
2022/11/11 09:45:12;;;;;;;5.43;2.10;;;8.60;85.80;;;;;;5066894;28;20051;-61
2022/11/11 09:48:06;;;;;;;4.97;2.28;;;8.70;85.90;;;;;;5064436;28;20051;-61
2022/11/11 09:50:56;;;;;;;3.83;1.75;;;8.70;86.00;;;;;;5066971;28;20497;-61
2022/11/11 09:53:47;;;;;;;3.70;1.65;;;8.70;86.30;;;;;;5067581;28;20052;-61
2022/11/11 09:56:33;;;;;;;3.65;1.70;;;8.70;86.30;;;;;;5067104;28;20533;-61
2022/11/11 09:59:24;;;;;;;4.10;2.10;;;8.80;86.40;;;;;;5066553;28;20508;-62
2022/11/11 10:02:19;;;;;;;3.72;1.80;;;8.90;86.30;;;;;;5065884;28;20514;-62
2022/11/11 10:05:10;;;;;;;4.85;2.00;;;8.90;86.20;;;;;;5066252;28;20060;-62
2022/11/11 10:07:59;;;;;;;4.50;2.00;;;9.00;86.20;;;;;;5067588;28;20047;-63
2022/11/11 10:10:46;;;;;;;4.20;2.15;;;9.00;86.30;;;;;;5068857;28;20459;-62
2022/11/11 10:13:34;;;;;;;4.70;1.88;;;9.10;86.40;;;;;;5066847;28;20055;-62
2022/11/11 10:16:30;;;;;;;5.78;1.98;;;9.10;86.40;;;;;;5063058;28;20043;-62
2022/11/11 10:19:27;;;;;;;4.22;1.80;;;9.20;86.00;;;;;;5064513;28;20055;-62
2022/11/11 10:22:20;;;;;;;5.18;1.98;;;9.20;86.00;;;;;;5065659;28;20052;-61
2022/11/11 10:25:20;;;;;;;4.30;2.15;;;9.20;86.00;;;;;;5068770;28;20051;-61
2022/11/11 10:28:06;;;;;;;5.35;2.17;;;9.30;86.10;;;;;;5068440;28;20182;-62
2022/11/11 10:30:52;;;;;;;5.13;2.42;;;9.30;86.10;;;;;;5067310;28;20056;-61
2022/11/11 10:33:46;;;;;;;5.57;2.30;;;9.30;86.10;;;;;;5063689;28;20517;-61
2022/11/11 10:36:34;;;;;;;4.45;2.35;;;9.40;86.20;;;;;;5067979;28;20082;-63
2022/11/11 10:39:25;;;;;;;5.97;2.40;;;9.40;86.30;;;;;;5067596;28;20270;-61
2022/11/11 10:42:17;;;;;;;5.95;2.60;;;9.40;86.20;;;;;;5064969;28;20501;-62
2022/11/11 10:45:08;;;;;;;5.72;2.35;;;9.50;86.30;;;;;;5068703;28;20567;-63
2022/11/11 10:47:58;;;;;;;4.53;2.08;;;9.60;86.20;;;;;;5066553;28;20055;-61
2022/11/11 10:50:49;;;;;;;5.63;2.45;;;9.60;86.10;;;;;;5066051;28;20074;-63
2022/11/11 10:53:43;;;;;;;4.82;2.53;;;9.70;86.10;;;;;;5067852;28;20059;-62
2022/11/11 10:56:36;;;;;;;5.47;2.60;;;9.70;86.20;;;;;;5068138;28;20083;-62
2022/11/11 10:59:26;;;;;;;4.57;2.30;;;9.80;86.00;;;;;;5068309;28;20059;-62
2022/11/11 11:02:19;;;;;;;4.28;2.30;;;9.80;86.00;;;;;;5066915;28;20048;-62
2022/11/11 11:05:08;;;;;;;6.95;3.10;;;9.90;86.00;;;;;;5067128;28;20118;-62
2022/11/11 11:07:58;;;;;;;6.97;3.17;;;9.90;86.00;;;;;;5063875;28;20501;-63
2022/11/11 11:10:50;;;;;;;7.97;3.80;;;9.90;86.00;;;;;;5064610;28;20067;-64
2022/11/11 11:13:41;;;;;;;10.32;3.80;;;10.00;85.90;;;;;;5067473;28;20490;-62
2022/11/11 11:16:38;;;;;;;7.70;4.00;;;10.00;85.90;;;;;;5066612;28;20409;-61
2022/11/11 11:19:26;;;;;;;6.25;3.17;;;10.00;86.20;;;;;;5062551;28;20051;-61
2022/11/11 11:22:12;;;;;;;8.43;4.03;;;10.00;86.10;;;;;;5069365;28;20410;-62
2022/11/11 11:25:11;;;;;;;7.07;3.53;;;10.00;86.20;;;;;;5066242;28;20075;-60
2022/11/11 11:28:09;;;;;;;9.17;4.23;;;10.10;86.10;;;;;;5063801;28;20773;-62
2022/11/11 11:31:02;;;;;;;7.53;3.25;;;10.10;86.20;;;;;;5063534;28;20056;-62
2022/11/11 11:33:58;;;;;;;6.15;2.80;;;10.10;86.50;;;;;;5065376;28;20056;-63
2022/11/11 11:36:43;;;;;;;8.00;3.10;;;10.10;86.30;;;;;;5067248;28;20047;-63
2022/11/11 11:39:36;;;;;;;6.63;2.90;;;10.10;86.10;;;;;;5064938;28;20129;-63
2022/11/11 11:42:30;;;;;;;6.03;2.72;;;10.10;86.30;;;;;;5065140;28;20071;-62
2022/11/11 11:45:22;;;;;;;6.55;2.88;;;10.10;86.30;;;;;;5065228;28;20056;-62
2022/11/11 11:48:23;;;;;;;5.65;2.60;;;10.20;86.10;;;;;;5066870;28;20060;-63
2022/11/11 11:51:32;;;;;;;5.70;2.80;;;10.20;86.10;;;;;;5061616;28;20048;-62
2022/11/11 11:54:33;;;;;;;6.00;2.42;;;10.20;86.20;;;;;;5064084;28;20048;-61
2022/11/11 11:57:35;;;;;;;5.70;2.33;;;10.20;86.40;;;;;;5065099;28;20047;-63
2022/11/11 12:00:25;;;;;;;5.95;2.65;;;10.20;86.30;;;;;;5061439;28;20056;-63
2022/11/11 12:03:30;;;;;;;5.93;2.28;;;10.20;86.40;;;;;;5065738;28;20055;-62
2022/11/11 12:06:21;;;;;;;4.95;2.55;;;10.20;86.60;;;;;;5065719;28;20105;-63
2022/11/11 12:09:21;;;;;;;5.38;2.33;;;10.20;86.40;;;;;;5063966;28;20086;-62
2022/11/11 12:12:16;;;;;;;7.78;2.38;;;10.20;86.40;;;;;;5066336;28;20043;-64
2022/11/11 12:15:17;;;;;;;4.80;2.28;;;10.20;86.70;;;;;;5064347;28;20064;-63
2022/11/11 12:18:19;;;;;;;7.65;2.33;;;10.20;86.70;;;;;;5064258;28;20043;-62
2022/11/11 12:21:11;;;;;;;4.95;2.17;;;10.20;87.00;;;;;;5062001;28;20162;-64
2022/11/11 12:24:02;;;;;;;3.40;1.48;;;10.10;86.90;;;;;;5066604;28;20051;-64
2022/11/11 12:26:57;;;;;;;5.85;1.65;;;10.20;87.30;;;;;;5065518;28;20059;-63
2022/11/11 12:29:54;;;;;;;7.70;1.77;;;10.20;87.20;;;;;;5065768;28;20353;-64
2022/11/11 12:33:01;;;;;;;2.35;1.23;;;10.20;87.10;;;;;;5051712;28;20512;-62
2022/11/11 12:36:00;;;;;;;5.28;1.60;;;10.20;87.60;;;;;;5061983;28;25008;-64
2022/11/11 12:38:58;;;;;;;3.58;1.67;;;10.20;87.30;;;;;;5065667;28;20563;-62
2022/11/11 12:41:56;;;;;;;3.28;1.50;;;10.20;87.30;;;;;;5063955;28;20052;-62
2022/11/11 12:44:51;;;;;;;4.22;1.35;;;10.20;87.30;;;;;;5066271;28;20190;-62
2022/11/11 12:47:43;;;;;;;5.57;1.67;;;10.20;87.30;;;;;;5067929;28;20055;-62
2022/11/11 12:50:39;;;;;;;3.40;1.20;;;10.20;87.20;;;;;;5063876;28;20129;-63
2022/11/11 12:53:34;;;;;;;5.13;1.40;;;10.20;87.20;;;;;;5062239;28;22796;-63
2022/11/11 12:56:28;;;;;;;5.75;1.50;;;10.20;87.20;;;;;;5063755;28;20117;-63
2022/11/11 12:59:24;;;;;;;3.45;1.45;;;10.30;87.10;;;;;;5065337;28;20512;-63
2022/11/11 13:02:26;;;;;;;3.40;1.75;;;10.30;87.10;;;;;;5065029;28;20051;-63
2022/11/11 13:05:17;;;;;;;3.15;1.40;;;10.30;87.00;;;;;;5064173;28;20398;-62
2022/11/11 13:08:39;;;;;;;3.58;1.70;;;10.30;87.20;;;;;;5063288;28;20079;-63
2022/11/11 13:11:35;;;;;;;3.45;1.55;;;10.30;87.50;;;;;;5063636;28;20161;-63
2022/11/11 13:14:39;;;;;;;4.70;1.70;;;10.30;87.30;;;;;;5061071;28;20063;-63
2022/11/11 13:17:25;;;;;;;4.00;1.73;;;10.30;87.40;;;;;;5064522;28;20072;-63
2022/11/11 13:20:21;;;;;;;3.35;1.52;;;10.40;87.30;;;;;;5064994;28;20051;-61
2022/11/11 13:23:09;;;;;;;3.22;1.55;;;10.40;87.20;;;;;;5063194;28;20089;-64
2022/11/11 13:26:02;;;;;;;3.33;1.50;;;10.40;87.30;;;;;;5065374;28;20223;-63
2022/11/11 13:28:51;;;;;;;5.53;1.80;;;10.40;87.90;;;;;;5062662;28;20051;-64
2022/11/11 13:31:39;;;;;;;5.25;2.03;;;10.40;87.60;;;;;;5060508;28;20047;-63
2022/11/11 13:34:33;;;;;;;5.55;1.98;;;10.40;87.40;;;;;;5063468;28;20060;-63
2022/11/11 13:37:26;;;;;;;5.65;2.25;;;10.40;87.50;;;;;;5061250;28;20048;-63
2022/11/11 13:40:32;;;;;;;4.65;2.10;;;10.40;87.40;;;;;;5063121;28;20508;-63
2022/11/11 13:43:21;;;;;;;5.80;2.10;;;10.40;87.60;;;;;;5064131;28;20055;-63
2022/11/11 13:46:28;;;;;;;3.78;2.05;;;10.40;87.50;;;;;;5062349;28;20125;-62
2022/11/11 13:49:24;;;;;;;5.75;2.50;;;10.40;87.60;;;;;;5064154;28;20061;-62
2022/11/11 13:52:22;;;;;;;7.75;3.60;;;10.50;87.50;;;;;;5061064;28;20548;-64
2022/11/11 13:55:21;;;;;;;10.07;4.28;;;10.50;87.40;;;;;;5059463;28;20055;-63
2022/11/11 13:58:17;;;;;;;11.27;5.30;;;10.50;87.70;;;;;;5063436;28;20047;-63
2022/11/11 14:01:05;;;;;;;11.75;6.13;;;10.50;88.00;;;;;;5066154;28;20070;-63
2022/11/11 14:04:04;;;;;;;13.18;6.72;;;10.50;87.80;;;;;;5063458;28;20090;-62
2022/11/11 14:06:52;;;;;;;17.50;7.95;;;10.50;87.70;;;;;;5060266;28;20407;-63
2022/11/11 14:10:08;;;;;;;15.10;8.38;;;10.50;88.00;;;;;;5064939;28;20051;-64
2022/11/11 14:12:55;;;;;;;17.27;8.57;;;10.50;87.90;;;;;;5063055;28;20529;-63
2022/11/11 14:15:43;;;;;;;18.90;8.60;;;10.40;87.70;;;;;;5065013;28;20046;-63
2022/11/11 14:18:39;;;;;;;19.80;9.70;;;10.50;87.90;;;;;;5065521;28;20407;-63
2022/11/11 14:21:48;;;;;;;21.48;10.65;;;10.50;87.90;;;;;;5063101;28;20269;-62
2022/11/11 14:24:37;;;;;;;25.50;11.48;;;10.50;87.70;;;;;;5061707;28;20051;-62
2022/11/11 14:27:28;;;;;;;24.33;12.15;;;10.50;87.80;;;;;;5061115;28;20686;-63
2022/11/11 14:30:29;;;;;;;26.42;12.30;;;10.50;87.70;;;;;;5064185;28;20582;-63
2022/11/11 14:33:23;;;;;;;26.95;12.07;;;10.50;87.80;;;;;;5022895;28;20154;-62
2022/11/11 14:36:22;;;;;;;23.15;11.10;;;10.50;87.80;;;;;;5024020;28;20511;-63
2022/11/11 14:39:18;;;;;;;24.90;12.63;;;10.50;87.80;;;;;;5027616;28;20069;-63
2022/11/11 14:42:05;;;;;;;27.33;12.65;;;10.50;87.80;;;;;;5027876;28;20060;-62
2022/11/11 14:44:51;;;;;;;25.70;13.07;;;10.50;87.80;;;;;;5026035;28;20507;-63
2022/11/11 14:47:42;;;;;;;26.45;11.98;;;10.50;87.90;;;;;;5023496;28;20056;-63
2022/11/11 14:50:44;;;;;;;26.98;12.68;;;10.50;88.00;;;;;;5028687;28;20159;-62
2022/11/11 14:53:37;;;;;;;23.67;12.13;;;10.50;88.00;;;;;;5025357;28;20052;-63
2022/11/11 14:56:26;;;;;;;22.65;11.35;;;10.50;88.10;;;;;;5018920;28;20172;-63
2022/11/11 14:59:16;;;;;;;21.90;10.57;;;10.50;88.10;;;;;;5038234;28;20100;-63
2022/11/11 15:02:04;;;;;;;21.67;11.75;;;10.40;88.10;;;;;;5029960;28;20519;-63
2022/11/11 15:04:52;;;;;;;21.75;11.35;;;10.40;88.20;;;;;;5019145;28;20056;-62
2022/11/11 15:07:57;;;;;;;21.42;10.35;;;10.40;88.20;;;;;;5020880;28;20424;-63
2022/11/11 15:11:06;;;;;;;22.30;10.95;;;10.40;88.20;;;;;;5022858;28;20123;-63
2022/11/11 15:14:07;;;;;;;21.38;10.80;;;10.30;88.20;;;;;;5024742;28;20180;-62
2022/11/11 15:17:08;;;;;;;21.13;10.27;;;10.30;88.20;;;;;;5022822;28;20123;-64
2022/11/11 15:20:04;;;;;;;19.58;10.32;;;10.30;88.30;;;;;;5022930;28;20048;-63
2022/11/11 15:23:02;;;;;;;19.52;9.88;;;10.30;88.30;;;;;;5020642;28;20053;-63
2022/11/11 15:25:56;;;;;;;18.45;9.93;;;10.30;88.30;;;;;;5024825;28;20094;-61
2022/11/11 15:29:10;;;;;;;18.40;9.25;;;10.20;88.30;;;;;;5024270;28;20111;-62
2022/11/11 15:32:06;;;;;;;19.67;8.77;;;10.20;88.30;;;;;;5047061;28;20517;-64
2022/11/11 15:34:57;;;;;;;14.73;8.13;;;10.20;88.30;;;;;;5058740;28;20055;-63
2022/11/11 15:37:50;;;;;;;14.30;7.60;;;10.20;88.40;;;;;;5062619;28;20513;-63
2022/11/11 15:40:45;;;;;;;14.05;7.03;;;10.10;88.40;;;;;;5062115;28;20535;-63
2022/11/11 15:43:33;;;;;;;15.73;7.95;;;10.10;88.40;;;;;;5066577;28;20052;-63
2022/11/11 15:46:24;;;;;;;18.10;10.48;;;10.10;88.50;;;;;;5061568;28;20048;-64
2022/11/11 15:49:14;;;;;;;18.92;10.43;;;10.00;88.50;;;;;;5064368;28;20051;-63
2022/11/11 15:52:00;;;;;;;18.35;10.13;;;10.00;88.50;;;;;;5071925;28;20075;-63
2022/11/11 15:54:46;;;;;;;15.77;9.88;;;10.00;88.60;;;;;;5063807;28;20059;-62
2022/11/11 15:57:33;;;;;;;17.50;8.98;;;9.90;88.60;;;;;;5064648;28;20051;-64
2022/11/11 16:00:37;;;;;;;18.95;8.20;;;9.90;88.50;;;;;;5066225;28;20055;-64
2022/11/11 16:03:29;;;;;;;15.52;8.40;;;9.90;88.50;;;;;;5060964;28;20667;-63